METAR Data
IDs: Format: Raw Decoded Include TAF

Data at: 1317 UTC 15 Jul 2020

KHYW 151315Z AUTO 00000KT 10SM CLR 28/25 A3009 RMK AO2
KHYW 151255Z AUTO 00000KT 10SM CLR 26/25 A3009 RMK AO2
KHYW 151235Z AUTO 00000KT 10SM CLR 26/25 A3008 RMK AO2
KHYW 151215Z AUTO 00000KT 7SM SCT110 24/23 A3008 RMK AO2
KHYW 151155Z AUTO 00000KT 10SM SCT110 23/23 A3007 RMK AO2
KHYW 151135Z AUTO 00000KT 10SM CLR 23/23 A3007 RMK AO2
KHYW 151115Z AUTO 00000KT 10SM CLR 22/22 A3007 RMK AO2
KHYW 151055Z AUTO 00000KT 10SM CLR 22/22 A3006 RMK AO2
KHYW 151035Z AUTO 00000KT 10SM CLR 22/22 A3005 RMK AO2
KHYW 151015Z AUTO 00000KT 10SM CLR 22/22 A3004 RMK AO2
KHYW 150955Z AUTO 00000KT 10SM CLR 22/22 A3004 RMK AO2
KHYW 150935Z AUTO 00000KT 7SM CLR 22/22 A3004 RMK AO2
KHYW 150915Z AUTO 00000KT 7SM CLR 22/22 A3003 RMK AO2
KHYW 150855Z AUTO 00000KT 10SM BKN110 23/22 A3002 RMK AO2
KHYW 150835Z AUTO 00000KT 7SM BKN110 23/22 A3002 RMK AO2
KHYW 150815Z AUTO 00000KT 10SM SCT110 23/22 A3002 RMK AO2
KHYW 150755Z AUTO 00000KT 10SM BKN110 23/22 A3002 RMK AO2
KHYW 150735Z AUTO 00000KT 10SM SCT110 23/22 A3002 RMK AO2
KHYW 150715Z AUTO 00000KT 10SM CLR 23/22 A3003 RMK AO2
KHYW 150655Z AUTO 00000KT 10SM CLR 23/22 A3003 RMK AO2
KHYW 150635Z AUTO 00000KT 10SM CLR 23/22 A3003 RMK AO2
KHYW 150615Z AUTO 00000KT 10SM CLR 23/23 A3003 RMK AO2
KHYW 150555Z AUTO 00000KT 10SM CLR 23/22 A3003 RMK AO2
KHYW 150535Z AUTO 00000KT 10SM CLR 23/23 A3004 RMK AO2
KHYW 150515Z AUTO 00000KT 10SM CLR 23/23 A3004 RMK AO2
KHYW 150455Z AUTO 00000KT 10SM CLR 23/23 A3004 RMK AO2
KHYW 150435Z AUTO 00000KT 10SM CLR 24/23 A3005 RMK AO2
KHYW 150415Z AUTO 00000KT 10SM CLR 24/23 A3005 RMK AO2
KHYW 150355Z AUTO 00000KT 10SM CLR 24/23 A3005 RMK AO2
KHYW 150335Z AUTO 00000KT 10SM CLR 24/23 A3005 RMK AO2
KHYW 150315Z AUTO 00000KT 10SM CLR 24/23 A3005 RMK AO2
KHYW 150255Z AUTO 00000KT 10SM CLR 24/23 A3005 RMK AO2
KHYW 150235Z AUTO 00000KT 10SM CLR 24/23 A3004 RMK AO2
KHYW 150215Z AUTO 00000KT 10SM CLR 25/23 A3004 RMK AO2
KHYW 150155Z AUTO 00000KT 10SM CLR 25/23 A3003 RMK AO2
KHYW 150135Z AUTO 00000KT 10SM CLR 25/23 A3003 RMK AO2
KHYW 150115Z AUTO 00000KT 10SM CLR 25/23 A3002 RMK AO2
KHYW 150055Z AUTO 00000KT 7SM CLR 26/24 A3001 RMK AO2
KHYW 150035Z AUTO 00000KT 10SM CLR 27/24 A3001 RMK AO2
KHYW 150015Z AUTO 00000KT 10SM CLR 28/23 A3001 RMK AO2
KHYW 142355Z AUTO 00000KT 10SM CLR 28/23 A3000 RMK AO2
KHYW 142335Z AUTO 17004KT 10SM CLR 30/23 A2999 RMK AO2
KHYW 142315Z AUTO 17005KT 10SM CLR 30/23 A2999 RMK AO2
KHYW 142255Z AUTO 15004KT 10SM CLR 31/23 A2999 RMK AO2
KHYW 142235Z AUTO 15005KT 10SM CLR 32/24 A2998 RMK AO2
KHYW 142215Z AUTO 15004KT 10SM CLR 32/24 A2998 RMK AO2
KHYW 142155Z AUTO 13003KT 10SM CLR 32/24 A2997 RMK AO2
KHYW 142135Z AUTO 15003KT 10SM SCT095 32/25 A2998 RMK AO2
KHYW 142115Z AUTO 15003KT 10SM SCT095 32/25 A2997 RMK AO2
KHYW 142055Z AUTO 14005KT 10SM SCT050 35/22 A2996 RMK AO2
KHYW 142035Z AUTO 04003KT 10SM SCT050 33/22 A2996 RMK AO2
KHYW 142015Z AUTO 00000KT 10SM CLR 33/21 A2996 RMK AO2
KHYW 141955Z AUTO 28003KT 10SM SCT046 33/22 A2997 RMK AO2
KHYW 141935Z AUTO 00000KT 10SM SCT046 33/22 A2997 RMK AO2
KHYW 141915Z AUTO 00000KT 10SM CLR 33/22 A2997 RMK AO2
KHYW 141855Z AUTO 03005KT 10SM CLR 33/22 A2997 RMK AO2
KHYW 141835Z AUTO 00000KT 10SM CLR 32/22 A2998 RMK AO2
KHYW 141815Z AUTO 00000KT 10SM CLR 32/22 A2998 RMK AO2
KHYW 141755Z AUTO 25003KT 10SM CLR 32/22 A2999 RMK AO2
KHYW 141735Z AUTO 00000KT 10SM CLR 32/23 A2999 RMK AO2
KHYW 141715Z AUTO 00000KT 10SM CLR 31/22 A2998 RMK AO2
KHYW 141655Z AUTO 00000KT 10SM CLR 31/22 A2999 RMK AO2
KHYW 141635Z AUTO 00000KT 10SM CLR 31/23 A3000 RMK AO2
KHYW 141615Z AUTO 00000KT 10SM CLR 31/22 A3000 RMK AO2
KHYW 141555Z AUTO 05003KT 10SM CLR 31/23 A3000 RMK AO2
KHYW 141535Z AUTO 04003KT 10SM CLR 30/22 A3000 RMK AO2
KHYW 141515Z AUTO 04007KT 10SM CLR 30/23 A2999 RMK AO2
KHYW 141455Z AUTO 00000KT 10SM CLR 30/22 A2999 RMK AO2
KHYW 141435Z AUTO 00000KT 10SM CLR 28/23 A3000 RMK AO2
KHYW 141415Z AUTO 00000KT 10SM CLR 28/22 A2999 RMK AO2
KHYW 141355Z AUTO 00000KT 10SM CLR 27/22 A2999 RMK AO2
KHYW 141335Z AUTO 01005KT 10SM CLR 27/22 A2998 RMK AO2
KHYW 141315Z AUTO 36004KT 10SM CLR 26/21 A2998 RMK AO2 LTG DSNT SE
KHYW 141255Z AUTO 02004KT 10SM CLR 25/21 A2997 RMK AO2
KHYW 141235Z AUTO 01004KT 10SM CLR 25/21 A2996 RMK AO2
KHYW 141215Z AUTO 02003KT 10SM CLR 23/21 A2996 RMK AO2
KHYW 141155Z AUTO 00000KT 10SM CLR 23/21 A2995 RMK AO2 LTG DSNT SE
KHYW 141135Z AUTO 00000KT 10SM CLR 21/20 A2994 RMK AO2 LTG DSNT SE
KHYW 141115Z AUTO 00000KT 10SM CLR 21/20 A2995 RMK AO2
KHYW 141055Z AUTO 00000KT 10SM CLR 20/20 A2994 RMK AO2
KHYW 141035Z AUTO 00000KT 10SM SCT050 20/20 A2994 RMK AO2
KHYW 140955Z AUTO 00000KT 10SM SCT050 20/20 A2994 RMK AO2
KHYW 140935Z AUTO 00000KT 10SM CLR 20/20 A2992 RMK AO2
KHYW 140915Z AUTO 00000KT 7SM CLR 20/20 A2991 RMK AO2 LTG DSNT SE
KHYW 140855Z AUTO 00000KT 10SM CLR 20/20 A2991 RMK AO2
KHYW 140835Z AUTO 00000KT 10SM CLR 20/20 A2991 RMK AO2
KHYW 140815Z AUTO 00000KT 10SM SCT050 20/20 A2991 RMK AO2
KHYW 140715Z AUTO 00000KT 10SM SCT050 20/20 A2991 RMK AO2
KHYW 140655Z AUTO 00000KT 10SM SCT050 20/20 A2992 RMK AO2
KHYW 140635Z AUTO 00000KT 10SM CLR 20/20 A2992 RMK AO2
KHYW 140615Z AUTO 00000KT 10SM CLR 21/20 A2992 RMK AO2
KHYW 140535Z AUTO 00000KT 10SM CLR 21/21 A2991 RMK AO2
KHYW 140515Z AUTO 00000KT 10SM CLR 21/20 A2991 RMK AO2
KHYW 140455Z AUTO 00000KT 10SM CLR 21/20 A2991 RMK AO2
KHYW 140435Z AUTO 03003KT 10SM CLR 21/21 A2990 RMK AO2
KHYW 140415Z AUTO 00000KT 10SM CLR 21/21 A2991 RMK AO2
KHYW 140355Z AUTO 00000KT 10SM CLR 21/21 A2990 RMK AO2
KHYW 140335Z AUTO 00000KT 10SM CLR 21/21 A2991 RMK AO2
KHYW 140315Z AUTO 00000KT 10SM CLR 21/21 A2991 RMK AO2
KHYW 140255Z AUTO 00000KT 10SM CLR 21/20 A2990 RMK AO2
KHYW 140235Z AUTO 00000KT 10SM CLR 21/21 A2989 RMK AO2
KHYW 140215Z AUTO 00000KT 10SM CLR 21/21 A2989 RMK AO2
KHYW 140155Z AUTO 00000KT 10SM CLR 21/21 A2990 RMK AO2
KHYW 140135Z AUTO 00000KT 10SM SCT090 22/21 A2991 RMK AO2